createdAt,value
2022-08-08T00:00:53.015Z,101978.91
2022-08-08T00:03:20.153Z,101987.19
2022-08-08T00:06:02.726Z,101976.59
2022-08-08T00:08:48.862Z,101988.38
2022-08-08T00:11:26.386Z,101986.69
2022-08-08T00:14:58.968Z,101979.69
2022-08-08T00:17:24.221Z,101979.84
2022-08-08T00:20:01.465Z,101980.34
2022-08-08T00:22:39.771Z,101980.81
2022-08-08T00:25:14.777Z,101981.34
2022-08-08T00:27:44.652Z,101978.53
2022-08-08T00:30:15.787Z,101992.78
2022-08-08T00:32:52.986Z,101979.50
2022-08-08T00:35:37.586Z,101982.56
2022-08-08T00:38:44.312Z,101981.22
2022-08-08T00:42:09.020Z,101975.44
2022-08-08T00:45:21.517Z,101981.59
2022-08-08T00:48:43.514Z,101979.78
2022-08-08T00:52:19.730Z,101980.06
2022-08-08T00:55:53.380Z,101977.47
2022-08-08T00:58:54.398Z,101979.75
2022-08-08T01:01:38.134Z,101984.84
2022-08-08T01:04:44.800Z,101993.03
2022-08-08T01:08:12.746Z,101994.78
2022-08-08T01:11:36.320Z,101994.13
2022-08-08T01:15:12.277Z,101986.41
2022-08-08T01:19:13.915Z,101989.63
2022-08-08T01:22:40.648Z,101992.44
2022-08-08T01:26:13.775Z,101986.59
2022-08-08T01:29:35.572Z,101992.63
2022-08-08T01:33:33.615Z,101984.56
2022-08-08T01:37:05.972Z,101989.63
2022-08-08T01:39:55.271Z,101987.00
2022-08-08T01:42:37.745Z,101985.38
2022-08-08T01:45:33.958Z,101979.47
2022-08-08T01:48:31.475Z,101977.44
2022-08-08T01:51:32.250Z,101983.84
2022-08-08T01:55:26.746Z,101983.25
2022-08-08T01:57:33.963Z,101983.84
2022-08-08T02:00:27.955Z,101979.13
2022-08-08T02:03:54.508Z,101983.03
2022-08-08T02:06:43.523Z,101986.97
2022-08-08T02:10:02.478Z,101989.56
2022-08-08T02:12:24.427Z,101984.41
2022-08-08T02:15:03.053Z,101983.41
2022-08-08T02:17:43.360Z,101989.56
2022-08-08T02:21:02.273Z,101991.78
2022-08-08T02:23:23.210Z,101991.31
2022-08-08T02:26:09.990Z,101986.91
2022-08-08T02:28:54.908Z,101978.31
2022-08-08T02:31:54.084Z,101982.19
2022-08-08T02:35:11.900Z,101987.38
2022-08-08T02:38:25.495Z,101990.69
2022-08-08T02:41:59.157Z,101978.34
2022-08-08T02:45:09.645Z,101987.66
2022-08-08T02:48:28.051Z,101981.44
2022-08-08T02:51:55.606Z,101978.91
2022-08-08T02:54:59.296Z,101975.22
2022-08-08T02:58:06.850Z,101983.28
2022-08-08T03:01:23.052Z,101982.63
2022-08-08T03:05:10.732Z,101990.41
2022-08-08T03:08:34.046Z,101976.13
2022-08-08T03:12:05.780Z,101971.31
2022-08-08T03:15:58.741Z,101981.19
2022-08-08T03:18:04.761Z,101981.19
2022-08-08T03:20:47.062Z,101977.78
2022-08-08T03:23:21.710Z,101986.19
2022-08-08T03:25:54.985Z,101984.53
2022-08-08T03:28:33.046Z,101985.38
2022-08-08T03:31:24.736Z,101993.09
2022-08-08T03:33:58.837Z,101998.50
2022-08-08T03:36:31.131Z,101993.91
2022-08-08T03:39:07.513Z,102003.81
2022-08-08T03:42:26.668Z,102005.91
2022-08-08T03:44:34.987Z,102011.41
2022-08-08T03:47:17.594Z,102001.56
2022-08-08T03:50:00.588Z,102002.25
2022-08-08T03:52:33.875Z,102005.53
2022-08-08T03:55:54.943Z,102014.28
2022-08-08T03:58:35.298Z,102013.44
2022-08-08T04:01:01.866Z,102019.06
2022-08-08T04:03:59.917Z,102024.66
2022-08-08T04:06:30.774Z,102026.63
2022-08-08T04:09:10.777Z,102021.19
2022-08-08T04:11:48.539Z,102027.97
2022-08-08T04:14:34.894Z,102024.44
2022-08-08T04:17:06.873Z,102036.19
2022-08-08T04:19:44.030Z,102037.44
2022-08-08T04:22:13.686Z,102042.81
2022-08-08T04:24:50.114Z,102038.19
2022-08-08T04:28:03.646Z,102033.72
2022-08-08T04:30:18.243Z,102036.06
2022-08-08T04:32:50.403Z,102037.25
2022-08-08T04:35:20.357Z,102036.75
2022-08-08T04:37:51.687Z,102027.75
2022-08-08T04:40:24.277Z,102034.34
2022-08-08T04:42:58.012Z,102029.19
2022-08-08T04:45:29.894Z,102029.84
2022-08-08T04:48:00.439Z,102042.69
2022-08-08T04:50:34.198Z,102037.31
2022-08-08T04:53:52.182Z,102032.28
2022-08-08T04:55:56.322Z,102039.56
2022-08-08T04:58:26.616Z,102036.03
2022-08-08T05:00:55.315Z,102045.31
2022-08-08T05:04:08.326Z,102042.19
2022-08-08T05:06:25.806Z,102037.16
2022-08-08T05:09:02.287Z,102043.88
2022-08-08T05:11:38.851Z,102042.13
2022-08-08T05:14:12.246Z,102046.66
2022-08-08T05:16:51.795Z,102046.41
2022-08-08T05:20:09.243Z,102047.78
2022-08-08T05:22:13.051Z,102050.56
2022-08-08T05:24:48.628Z,102043.88
2022-08-08T05:27:17.738Z,102052.69
2022-08-08T05:29:51.951Z,102054.16
2022-08-08T05:32:27.147Z,102051.97
2022-08-08T05:35:04.420Z,102057.28
2022-08-08T05:37:53.158Z,102050.09
2022-08-08T05:40:28.800Z,102056.91
2022-08-08T05:43:38.701Z,102061.16
2022-08-08T05:46:03.418Z,102054.75
2022-08-08T05:48:34.739Z,102062.56
2022-08-08T05:51:14.708Z,102064.13
2022-08-08T05:54:26.013Z,102063.13
2022-08-08T05:56:42.179Z,102066.63
2022-08-08T05:59:59.465Z,102064.38
2022-08-08T06:02:43.870Z,102067.22
2022-08-08T06:05:34.627Z,102071.41
2022-08-08T06:08:10.506Z,102077.63
2022-08-08T06:10:56.890Z,102075.38
2022-08-08T06:13:35.881Z,102076.72
2022-08-08T06:16:13.313Z,102086.06
2022-08-08T06:18:43.722Z,102084.28
2022-08-08T06:21:32.520Z,102086.56
2022-08-08T06:24:02.142Z,102087.31
2022-08-08T06:26:44.327Z,102093.38
2022-08-08T06:29:56.415Z,102097.31
2022-08-08T06:32:18.584Z,102099.41
2022-08-08T06:35:12.287Z,102104.34
2022-08-08T06:37:50.794Z,102099.53
2022-08-08T06:40:21.560Z,102096.69
2022-08-08T06:42:57.582Z,102099.47
2022-08-08T06:45:26.110Z,102095.47
2022-08-08T06:48:01.189Z,102107.16
2022-08-08T06:50:38.549Z,102096.88
2022-08-08T06:53:17.183Z,102102.91
2022-08-08T06:56:00.843Z,102095.94
2022-08-08T06:58:33.228Z,102097.44
2022-08-08T07:01:24.255Z,102097.78
2022-08-08T07:04:40.301Z,102095.75
2022-08-08T07:06:51.538Z,102092.53
2022-08-08T07:09:22.041Z,102108.28
2022-08-08T07:11:59.453Z,102107.28
2022-08-08T07:14:36.361Z,102110.66
2022-08-08T07:17:09.535Z,102099.28
2022-08-08T07:19:53.650Z,102110.69
2022-08-08T07:22:39.948Z,102118.50
2022-08-08T07:25:10.978Z,102126.13
2022-08-08T07:28:01.967Z,102123.13
2022-08-08T07:30:31.893Z,102121.13
2022-08-08T07:33:02.135Z,102119.22
2022-08-08T07:35:31.244Z,102127.16
2022-08-08T07:38:10.166Z,102133.13
2022-08-08T07:40:40.113Z,102124.97
2022-08-08T07:43:09.806Z,102136.00
2022-08-08T07:46:04.838Z,102138.38
2022-08-08T07:48:29.653Z,102129.97
2022-08-08T07:51:01.213Z,102137.38
2022-08-08T07:54:01.358Z,102138.47
2022-08-08T07:56:35.677Z,102138.16
2022-08-08T07:59:11.115Z,102137.72
2022-08-08T08:02:33.339Z,102147.13
2022-08-08T08:04:49.356Z,102141.81
2022-08-08T08:07:32.375Z,102146.78
2022-08-08T08:10:13.076Z,102148.41
2022-08-08T08:12:46.264Z,102144.66
2022-08-08T08:15:21.733Z,102145.78
2022-08-08T08:17:55.913Z,102143.03
2022-08-08T08:20:29.721Z,102144.84
2022-08-08T08:22:58.808Z,102142.97
2022-08-08T08:25:40.808Z,102146.97
2022-08-08T08:28:21.331Z,102145.59
2022-08-08T08:30:53.552Z,102138.75
2022-08-08T08:33:22.402Z,102149.94
2022-08-08T08:36:19.100Z,102138.13
2022-08-08T08:38:50.051Z,102148.19
2022-08-08T08:41:22.162Z,102149.09
2022-08-08T08:43:52.822Z,102136.78
2022-08-08T08:46:45.409Z,102143.53
2022-08-08T08:49:16.677Z,102152.53
2022-08-08T08:51:51.504Z,102146.56
2022-08-08T08:54:25.618Z,102150.25
2022-08-08T08:56:57.135Z,102149.06
2022-08-08T08:59:59.612Z,102145.19
2022-08-08T09:02:24.160Z,102146.41
2022-08-08T09:04:58.931Z,102152.28
2022-08-08T09:07:39.515Z,102148.28
2022-08-08T09:10:18.870Z,102145.69
2022-08-08T09:12:52.177Z,102154.91
2022-08-08T09:15:37.169Z,102142.59
2022-08-08T09:18:09.700Z,102158.00
2022-08-08T09:21:59.244Z,102145.81
2022-08-08T09:23:33.472Z,102154.75
2022-08-08T09:26:21.399Z,102152.25
2022-08-08T09:28:51.724Z,102144.16
2022-08-08T09:31:42.303Z,102156.28
2022-08-08T09:34:32.562Z,102151.53
2022-08-08T09:37:58.357Z,102145.63
2022-08-08T09:40:03.857Z,102152.88
2022-08-08T09:42:44.201Z,102154.66
2022-08-08T09:45:55.246Z,102139.91
2022-08-08T09:48:21.567Z,102147.84
2022-08-08T09:50:56.158Z,102141.16
2022-08-08T09:53:59.029Z,102141.59
2022-08-08T09:56:25.253Z,102141.69
2022-08-08T09:59:11.157Z,102145.06
2022-08-08T10:01:59.000Z,102139.44
2022-08-08T10:04:42.235Z,102141.34
2022-08-08T10:07:17.646Z,102140.59
2022-08-08T10:09:59.557Z,102148.84
2022-08-08T10:12:53.238Z,102138.94
2022-08-08T10:15:25.240Z,102138.59
2022-08-08T10:18:10.152Z,102137.09
2022-08-08T10:20:58.268Z,102129.78
2022-08-08T10:23:47.127Z,102142.94
2022-08-08T10:26:29.755Z,102131.22
2022-08-08T10:29:07.055Z,102134.97
2022-08-08T10:31:55.235Z,102131.22
2022-08-08T10:34:27.456Z,102130.41
2022-08-08T10:36:59.682Z,102131.44
2022-08-08T10:39:31.737Z,102135.00
2022-08-08T10:42:16.326Z,102125.59
2022-08-08T10:44:46.037Z,102120.97
2022-08-08T10:47:20.988Z,102128.16
2022-08-08T10:50:02.334Z,102136.22
2022-08-08T10:52:35.091Z,102123.91
2022-08-08T10:55:06.654Z,102114.59
2022-08-08T10:57:50.013Z,102120.13
2022-08-08T11:00:27.265Z,102104.34
2022-08-08T11:02:56.595Z,102107.72
2022-08-08T11:05:39.004Z,102110.66
2022-08-08T11:08:30.954Z,102115.28
2022-08-08T11:11:08.243Z,102120.22
2022-08-08T11:14:00.047Z,102106.13
2022-08-08T11:16:34.544Z,102108.09
2022-08-08T11:19:05.582Z,102115.81
2022-08-08T11:21:55.484Z,102107.69
2022-08-08T11:24:29.106Z,102104.47
2022-08-08T11:27:10.612Z,102097.53
2022-08-08T11:29:58.328Z,102091.25
2022-08-08T11:32:41.762Z,102094.59
2022-08-08T11:35:27.844Z,102096.38
2022-08-08T11:38:35.662Z,102098.66
2022-08-08T11:40:53.156Z,102099.84
2022-08-08T11:43:24.920Z,102093.13
2022-08-08T11:46:10.015Z,102094.91
2022-08-08T11:48:47.209Z,102108.34
2022-08-08T11:51:30.326Z,102094.53
2022-08-08T11:54:09.710Z,102098.81
2022-08-08T11:57:14.490Z,102093.97
2022-08-08T12:00:00.614Z,102107.47
2022-08-08T12:02:34.174Z,102096.88
2022-08-08T12:05:08.253Z,102091.34
2022-08-08T12:07:51.559Z,102093.44
2022-08-08T12:10:24.664Z,102091.34
2022-08-08T12:13:05.111Z,102087.03
2022-08-08T12:15:42.246Z,102095.63
2022-08-08T12:18:17.979Z,102092.59
2022-08-08T12:20:50.094Z,102084.00
2022-08-08T12:23:43.130Z,102084.41
2022-08-08T12:26:28.105Z,102081.78
2022-08-08T12:29:40.991Z,102088.38
2022-08-08T12:32:17.034Z,102083.16
2022-08-08T12:35:13.226Z,102077.69
2022-08-08T12:37:48.182Z,102092.41
2022-08-08T12:40:54.800Z,102081.16
2022-08-08T12:43:43.769Z,102079.06
2022-08-08T12:46:24.843Z,102083.56
2022-08-08T12:51:58.616Z,102072.53
2022-08-08T12:54:35.703Z,102077.69
2022-08-08T12:57:17.240Z,102074.44
2022-08-08T13:00:04.748Z,102072.25
2022-08-08T13:02:37.854Z,102073.28
2022-08-08T13:05:26.520Z,102073.16
2022-08-08T13:08:17.218Z,102069.47
2022-08-08T13:10:55.407Z,102071.72
2022-08-08T13:13:35.080Z,102061.97
2022-08-08T13:16:21.417Z,102060.38
2022-08-08T13:18:57.254Z,102066.78
2022-08-08T13:21:36.365Z,102057.47
2022-08-08T13:24:18.608Z,102056.16
2022-08-08T13:27:02.138Z,102049.38
2022-08-08T13:29:40.857Z,102055.84
2022-08-08T13:32:11.040Z,102055.50
2022-08-08T13:34:41.413Z,102056.50
2022-08-08T13:37:19.886Z,102053.72
2022-08-08T13:40:03.382Z,102049.97
2022-08-08T13:42:32.514Z,102057.50
2022-08-08T13:45:04.529Z,102043.88
2022-08-08T13:47:34.738Z,102046.41
2022-08-08T13:50:38.418Z,102054.03
2022-08-08T13:52:55.517Z,102056.25
2022-08-08T13:55:29.288Z,102044.72
2022-08-08T13:58:08.271Z,102039.91
2022-08-08T14:00:46.011Z,102047.88
2022-08-08T14:03:53.955Z,102044.00
2022-08-08T14:06:32.484Z,102041.25
2022-08-08T14:09:25.423Z,102033.28
2022-08-08T14:11:51.408Z,102043.69
2022-08-08T14:14:21.187Z,102042.47
2022-08-08T14:16:57.234Z,102050.31
2022-08-08T14:19:57.816Z,102032.31
2022-08-08T14:22:28.866Z,102041.97
2022-08-08T14:25:00.856Z,102043.69
2022-08-08T14:27:33.412Z,102039.97
2022-08-08T14:30:17.885Z,102044.47
2022-08-08T14:32:53.104Z,102038.72
2022-08-08T14:35:35.058Z,102045.25
2022-08-08T14:38:33.595Z,102040.41
2022-08-08T14:40:59.028Z,102037.16
2022-08-08T14:44:01.787Z,102040.63
2022-08-08T14:46:30.851Z,102038.44
2022-08-08T14:49:09.461Z,102036.75
2022-08-08T14:51:53.541Z,102032.28
2022-08-08T14:54:29.254Z,102028.59
2022-08-08T14:56:58.512Z,102036.34
2022-08-08T14:59:51.047Z,102029.00
2022-08-08T15:02:25.754Z,102027.75
2022-08-08T15:05:10.596Z,102041.69
2022-08-08T15:07:42.509Z,102033.28
2022-08-08T15:10:22.898Z,102034.72
2022-08-08T15:12:57.303Z,102036.66
2022-08-08T15:16:01.364Z,102038.00
2022-08-08T15:18:13.961Z,102031.94
2022-08-08T15:20:48.791Z,102032.56
2022-08-08T15:23:18.467Z,102028.47
2022-08-08T15:25:46.746Z,102023.53
2022-08-08T15:28:33.700Z,102030.84
2022-08-08T15:31:02.999Z,102033.47
2022-08-08T15:33:35.475Z,102027.94
2022-08-08T15:36:07.923Z,102034.66
2022-08-08T15:38:40.565Z,102029.19
2022-08-08T15:41:17.969Z,102025.53
2022-08-08T15:44:01.077Z,102019.81
2022-08-08T15:46:34.868Z,102020.16
2022-08-08T15:49:05.019Z,102013.72
2022-08-08T15:51:34.272Z,102016.91
2022-08-08T15:54:05.152Z,102020.38
2022-08-08T15:56:33.775Z,102010.41
2022-08-08T15:59:02.357Z,102010.22
2022-08-08T16:01:40.429Z,102014.13
2022-08-08T16:04:19.046Z,102013.16
2022-08-08T16:06:51.003Z,102011.09
2022-08-08T16:13:04.327Z,102013.53
2022-08-08T16:13:11.561Z,102008.63
2022-08-08T16:14:57.449Z,102005.34
2022-08-08T16:17:57.597Z,102004.47
2022-08-08T16:20:14.967Z,102008.06
2022-08-08T16:22:49.470Z,102006.63
2022-08-08T16:25:22.081Z,102006.19
2022-08-08T16:27:57.829Z,102000.91
2022-08-08T16:30:36.415Z,102000.56
2022-08-08T16:33:05.759Z,101998.75
2022-08-08T16:35:34.517Z,101993.47
2022-08-08T16:38:02.772Z,101996.09
2022-08-08T16:40:33.251Z,102007.31
2022-08-08T16:43:01.807Z,102005.06
2022-08-08T16:46:37.653Z,102007.19
2022-08-08T16:48:19.219Z,101998.16
2022-08-08T16:50:47.564Z,102005.84
2022-08-08T16:55:01.842Z,102005.50
2022-08-08T16:56:14.170Z,101995.81
2022-08-08T16:58:43.453Z,102011.84
2022-08-08T17:01:15.641Z,102010.94
2022-08-08T17:04:00.638Z,102006.53
2022-08-08T17:06:39.630Z,102005.72
2022-08-08T17:09:15.557Z,102001.28
2022-08-08T17:11:48.485Z,102006.19
2022-08-08T17:14:33.027Z,102006.56
2022-08-08T17:17:04.507Z,102016.16
2022-08-08T17:19:41.125Z,102005.63
2022-08-08T17:22:10.713Z,102013.31
2022-08-08T17:24:40.898Z,102003.84
2022-08-08T17:27:10.710Z,102021.09
2022-08-08T17:29:43.930Z,102026.47
2022-08-08T17:32:28.816Z,102027.06
2022-08-08T17:35:54.191Z,102027.84
2022-08-08T17:37:53.207Z,102033.81
2022-08-08T17:40:22.227Z,102028.78
2022-08-08T17:42:53.098Z,102036.22
2022-08-08T17:45:23.195Z,102039.00
2022-08-08T17:47:54.263Z,102033.13
2022-08-08T17:50:23.622Z,102045.97
2022-08-08T17:52:52.726Z,102039.31
2022-08-08T17:56:07.153Z,102047.94
2022-08-08T17:58:12.349Z,102044.16
2022-08-08T18:00:41.680Z,102040.66
2022-08-08T18:03:13.348Z,102045.06
2022-08-08T18:05:43.989Z,102045.53
2022-08-08T18:08:24.549Z,102054.94
2022-08-08T18:11:07.045Z,102044.00
2022-08-08T18:13:41.852Z,102042.72
2022-08-08T18:16:12.708Z,102039.69
2022-08-08T18:18:52.602Z,102050.06
2022-08-08T18:21:34.612Z,102049.88
2022-08-08T18:24:04.884Z,102054.44
2022-08-08T18:26:34.440Z,102048.31
2022-08-08T18:29:05.902Z,102053.00
2022-08-08T18:31:34.347Z,102044.91
2022-08-08T18:34:11.963Z,102063.94
2022-08-08T18:36:55.690Z,102057.41
2022-08-08T18:39:27.536Z,102065.69
2022-08-08T18:42:01.129Z,102054.47
2022-08-08T18:44:36.054Z,102062.47
2022-08-08T18:47:05.260Z,102062.06
2022-08-08T18:49:49.136Z,102070.13
2022-08-08T18:52:23.404Z,102071.09
2022-08-08T18:55:00.436Z,102080.78
2022-08-08T18:57:41.297Z,102076.72
2022-08-08T19:00:20.944Z,102087.16
2022-08-08T19:02:55.342Z,102085.16
2022-08-08T19:05:34.285Z,102098.69
2022-08-08T19:08:25.366Z,102104.88
2022-08-08T19:10:59.026Z,102107.47
2022-08-08T19:13:53.279Z,102113.94
2022-08-08T19:16:19.946Z,102114.53
2022-08-08T19:19:00.129Z,102111.03
2022-08-08T19:21:33.848Z,102114.34
2022-08-08T19:24:49.036Z,102124.78
2022-08-08T19:27:07.699Z,102123.66
2022-08-08T19:29:40.783Z,102121.94
2022-08-08T19:32:21.919Z,102133.34
2022-08-08T19:34:51.578Z,102125.41
2022-08-08T19:37:42.725Z,102129.09
2022-08-08T19:40:14.617Z,102139.22
2022-08-08T19:42:45.478Z,102142.03
2022-08-08T19:45:14.411Z,102139.53
2022-08-08T19:48:04.485Z,102141.78
2022-08-08T19:50:34.857Z,102147.16
2022-08-08T19:53:03.216Z,102140.31
2022-08-08T19:55:51.617Z,102146.81
2022-08-08T19:58:20.167Z,102152.91
2022-08-08T20:00:53.110Z,102146.06
2022-08-08T20:04:00.393Z,102150.94
2022-08-08T20:06:15.601Z,102149.91
2022-08-08T20:08:48.125Z,102158.28
2022-08-08T20:11:16.993Z,102156.78
2022-08-08T20:14:31.329Z,102154.28
2022-08-08T20:16:38.943Z,102167.13
2022-08-08T20:19:10.950Z,102161.38
2022-08-08T20:21:39.713Z,102165.56
2022-08-08T20:24:09.321Z,102167.31
2022-08-08T20:26:41.636Z,102161.59
2022-08-08T20:29:16.119Z,102164.56
2022-08-08T20:32:02.547Z,102168.25
2022-08-08T20:34:35.149Z,102171.88
2022-08-08T20:37:07.231Z,102173.03
2022-08-08T20:39:41.782Z,102178.00
2022-08-08T20:42:23.699Z,102173.56
2022-08-08T20:44:58.911Z,102176.09
2022-08-08T20:47:28.754Z,102182.06
2022-08-08T20:50:09.835Z,102184.03
2022-08-08T20:52:39.328Z,102195.59
2022-08-08T20:55:22.725Z,102192.16
2022-08-08T20:57:54.447Z,102187.00
2022-08-08T21:00:28.068Z,102188.78
2022-08-08T21:02:56.459Z,102190.63
2022-08-08T21:05:31.885Z,102188.56
2022-08-08T21:08:34.410Z,102196.00
2022-08-08T21:10:50.096Z,102194.88
2022-08-08T21:13:18.375Z,102192.00
2022-08-08T21:16:05.937Z,102191.53
2022-08-08T21:18:35.155Z,102189.75
2022-08-08T21:21:19.559Z,102191.53
2022-08-08T21:24:03.168Z,102189.88
2022-08-08T21:26:34.394Z,102187.63
2022-08-08T21:29:02.812Z,102192.72
2022-08-08T21:31:58.347Z,102194.56
2022-08-08T21:34:19.806Z,102191.72
2022-08-08T21:36:51.725Z,102195.38
2022-08-08T21:39:22.964Z,102193.78
2022-08-08T21:42:10.199Z,102195.41
2022-08-08T21:44:39.114Z,102188.38
2022-08-08T21:48:06.448Z,102192.13
2022-08-08T21:50:15.676Z,102194.84
2022-08-08T21:54:36.543Z,102199.16
2022-08-08T21:56:24.465Z,102194.31
2022-08-08T21:58:21.852Z,102195.84
2022-08-08T22:01:04.061Z,102200.06
2022-08-08T22:03:32.875Z,102200.06
2022-08-08T22:06:02.554Z,102199.78
2022-08-08T22:08:41.803Z,102199.47
2022-08-08T22:11:45.116Z,102207.09
2022-08-08T22:13:58.875Z,102212.97
2022-08-08T22:16:28.454Z,102212.94
2022-08-08T22:18:56.875Z,102208.09
2022-08-08T22:21:25.260Z,102216.31
2022-08-08T22:24:04.795Z,102212.94
2022-08-08T22:26:33.165Z,102214.69
2022-08-08T22:29:59.353Z,102219.47
2022-08-08T22:32:09.755Z,102230.47
2022-08-08T22:34:39.728Z,102225.59
2022-08-08T22:37:15.132Z,102214.66
2022-08-08T22:40:00.217Z,102219.16
2022-08-08T22:42:32.139Z,102217.72
2022-08-08T22:45:03.707Z,102219.22
2022-08-08T22:47:34.172Z,102216.09
2022-08-08T22:50:25.101Z,102221.63
2022-08-08T22:53:01.556Z,102217.47
2022-08-08T22:55:58.517Z,102216.66
2022-08-08T22:58:32.839Z,102222.81
2022-08-08T23:01:02.197Z,102222.78
2022-08-08T23:03:54.444Z,102225.53
2022-08-08T23:06:24.482Z,102228.97
2022-08-08T23:08:55.020Z,102224.22
2022-08-08T23:11:31.420Z,102226.09
2022-08-08T23:14:16.805Z,102227.78
2022-08-08T23:16:48.202Z,102232.84
2022-08-08T23:19:26.860Z,102229.44
2022-08-08T23:21:55.160Z,102227.97
2022-08-08T23:24:23.558Z,102231.13
2022-08-08T23:26:56.132Z,102221.63
2022-08-08T23:29:25.541Z,102218.84
2022-08-08T23:31:54.069Z,102222.34
2022-08-08T23:34:23.526Z,102219.34
2022-08-08T23:36:57.905Z,102225.59
2022-08-08T23:39:32.343Z,102233.69
2022-08-08T23:42:11.355Z,102233.63
2022-08-08T23:44:39.658Z,102231.50
2022-08-08T23:49:07.771Z,102228.75
2022-08-08T23:50:03.069Z,102224.56
2022-08-08T23:52:34.298Z,102234.41
2022-08-08T23:55:14.479Z,102236.25
2022-08-08T23:57:53.024Z,102229.00
